sensor_id;sensor_type;location;lat;lon;timestamp;pressure;altitude;pressure_sealevel;temperature;humidity
34124;BME280;13153;52.316;21.166;2023-01-28T00:00:47;101138.63;;;5.42;63.49
34124;BME280;13153;52.316;21.166;2023-01-28T00:03:13;101141.16;;;5.41;63.54
34124;BME280;13153;52.316;21.166;2023-01-28T00:05:40;101140.97;;;5.38;63.89
34124;BME280;13153;52.316;21.166;2023-01-28T00:08:06;101142.03;;;5.26;63.74
34124;BME280;13153;52.316;21.166;2023-01-28T00:10:32;101135.72;;;5.23;63.89
34124;BME280;13153;52.316;21.166;2023-01-28T00:12:58;101150.66;;;5.25;64.53
34124;BME280;13153;52.316;21.166;2023-01-28T00:15:23;101142.94;;;5.27;64.29
34124;BME280;13153;52.316;21.166;2023-01-28T00:17:50;101146.25;;;5.24;63.86
34124;BME280;13153;52.316;21.166;2023-01-28T00:20:17;101143.66;;;5.24;64.35
34124;BME280;13153;52.316;21.166;2023-01-28T00:22:47;101146.44;;;5.27;64.55
34124;BME280;13153;52.316;21.166;2023-01-28T00:25:14;101137.72;;;5.27;64.56
34124;BME280;13153;52.316;21.166;2023-01-28T00:27:40;101136.91;;;5.28;64.27
34124;BME280;13153;52.316;21.166;2023-01-28T00:30:09;101141.41;;;5.30;64.19
34124;BME280;13153;52.316;21.166;2023-01-28T00:32:35;101134.28;;;5.28;64.28
34124;BME280;13153;52.316;21.166;2023-01-28T00:35:00;101134.69;;;5.19;64.17
34124;BME280;13153;52.316;21.166;2023-01-28T00:37:26;101137.28;;;5.19;64.43
34124;BME280;13153;52.316;21.166;2023-01-28T00:39:52;101144.94;;;5.16;64.70
34124;BME280;13153;52.316;21.166;2023-01-28T00:42:18;101143.03;;;5.14;64.73
34124;BME280;13153;52.316;21.166;2023-01-28T00:44:43;101141.13;;;5.11;64.83
34124;BME280;13153;52.316;21.166;2023-01-28T00:47:09;101139.00;;;5.19;64.70
34124;BME280;13153;52.316;21.166;2023-01-28T00:49:35;101138.25;;;5.21;64.82
34124;BME280;13153;52.316;21.166;2023-01-28T00:52:01;101133.22;;;5.24;64.58
34124;BME280;13153;52.316;21.166;2023-01-28T00:54:26;101129.78;;;5.25;64.56
34124;BME280;13153;52.316;21.166;2023-01-28T00:56:52;101136.53;;;5.22;64.50
34124;BME280;13153;52.316;21.166;2023-01-28T00:59:18;101144.63;;;5.26;64.56
34124;BME280;13153;52.316;21.166;2023-01-28T01:01:44;101134.38;;;5.29;64.51
34124;BME280;13153;52.316;21.166;2023-01-28T01:04:10;101133.66;;;5.32;64.35
34124;BME280;13153;52.316;21.166;2023-01-28T01:06:39;101131.59;;;5.26;64.44
34124;BME280;13153;52.316;21.166;2023-01-28T01:09:09;101129.50;;;5.21;64.45
34124;BME280;13153;52.316;21.166;2023-01-28T01:11:35;101133.69;;;5.17;64.35
34124;BME280;13153;52.316;21.166;2023-01-28T01:14:01;101144.25;;;5.20;64.70
34124;BME280;13153;52.316;21.166;2023-01-28T01:16:30;101132.50;;;5.27;64.51
34124;BME280;13153;52.316;21.166;2023-01-28T01:19:02;101131.97;;;5.32;64.77
34124;BME280;13153;52.316;21.166;2023-01-28T01:21:29;101127.72;;;5.35;64.22
34124;BME280;13153;52.316;21.166;2023-01-28T01:23:55;101127.91;;;5.38;64.22
34124;BME280;13153;52.316;21.166;2023-01-28T01:26:22;101127.00;;;5.37;64.48
34124;BME280;13153;52.316;21.166;2023-01-28T01:28:50;101132.31;;;5.39;64.22
34124;BME280;13153;52.316;21.166;2023-01-28T01:31:19;101133.94;;;5.37;63.98
34124;BME280;13153;52.316;21.166;2023-01-28T01:33:48;101132.31;;;5.39;64.05
34124;BME280;13153;52.316;21.166;2023-01-28T01:36:16;101130.78;;;5.42;63.97
34124;BME280;13153;52.316;21.166;2023-01-28T01:38:44;101132.59;;;5.43;63.89
34124;BME280;13153;52.316;21.166;2023-01-28T01:41:28;101131.97;;;5.47;64.07
34124;BME280;13153;52.316;21.166;2023-01-28T01:43:59;101132.06;;;5.49;63.91
34124;BME280;13153;52.316;21.166;2023-01-28T01:46:49;101130.34;;;5.49;63.98
34124;BME280;13153;52.316;21.166;2023-01-28T01:49:22;101130.97;;;5.45;63.72
34124;BME280;13153;52.316;21.166;2023-01-28T01:52:05;101123.16;;;5.45;63.88
34124;BME280;13153;52.316;21.166;2023-01-28T01:54:32;101132.69;;;5.45;64.03
34124;BME280;13153;52.316;21.166;2023-01-28T01:57:01;101138.09;;;5.48;64.02
34124;BME280;13153;52.316;21.166;2023-01-28T01:59:32;101132.69;;;5.45;64.08
34124;BME280;13153;52.316;21.166;2023-01-28T02:02:02;101134.31;;;5.43;64.06
34124;BME280;13153;52.316;21.166;2023-01-28T02:04:34;101127.19;;;5.40;63.89
34124;BME280;13153;52.316;21.166;2023-01-28T02:07:02;101136.63;;;5.38;63.86
34124;BME280;13153;52.316;21.166;2023-01-28T02:09:32;101130.34;;;5.35;64.20
34124;BME280;13153;52.316;21.166;2023-01-28T02:12:10;101133.84;;;5.35;63.85
34124;BME280;13153;52.316;21.166;2023-01-28T02:14:47;101130.44;;;5.36;64.34
34124;BME280;13153;52.316;21.166;2023-01-28T02:17:13;101139.34;;;5.40;64.06
34124;BME280;13153;52.316;21.166;2023-01-28T02:26:23;101140.78;;;5.35;64.38
34124;BME280;13153;52.316;21.166;2023-01-28T02:29:26;101147.34;;;5.28;64.00
34124;BME280;13153;52.316;21.166;2023-01-28T02:35:20;101147.97;;;5.39;64.26
34124;BME280;13153;52.316;21.166;2023-01-28T02:37:57;101147.97;;;5.39;64.36
34124;BME280;13153;52.316;21.166;2023-01-28T02:40:30;101146.91;;;5.35;63.90
34124;BME280;13153;52.316;21.166;2023-01-28T02:42:59;101139.34;;;5.40;64.28
34124;BME280;13153;52.316;21.166;2023-01-28T02:45:31;101143.94;;;5.44;64.02
34124;BME280;13153;52.316;21.166;2023-01-28T02:48:20;101147.81;;;5.50;64.21
34124;BME280;13153;52.316;21.166;2023-01-28T02:51:16;101140.06;;;5.52;64.24
34124;BME280;13153;52.316;21.166;2023-01-28T02:54:04;101142.50;;;5.49;63.88
34124;BME280;13153;52.316;21.166;2023-01-28T02:57:01;101145.09;;;5.49;63.96
34124;BME280;13153;52.316;21.166;2023-01-28T03:00:32;101142.50;;;5.49;64.07
34124;BME280;13153;52.316;21.166;2023-01-28T03:03:14;101150.50;;;5.52;64.19
34124;BME280;13153;52.316;21.166;2023-01-28T03:06:02;101142.75;;;5.53;63.94
34124;BME280;13153;52.316;21.166;2023-01-28T03:08:38;101144.66;;;5.56;63.71
34124;BME280;13153;52.316;21.166;2023-01-28T03:11:31;101149.69;;;5.53;63.80
34124;BME280;13153;52.316;21.166;2023-01-28T03:14:19;101151.50;;;5.54;63.79
34124;BME280;13153;52.316;21.166;2023-01-28T03:17:08;101148.06;;;5.55;63.84
34124;BME280;13153;52.316;21.166;2023-01-28T03:19:56;101153.94;;;5.51;63.77
34124;BME280;13153;52.316;21.166;2023-01-28T03:22:44;101150.22;;;5.47;63.68
34124;BME280;13153;52.316;21.166;2023-01-28T03:25:29;101154.47;;;5.45;63.76
34124;BME280;13153;52.316;21.166;2023-01-28T03:28:18;101155.38;;;5.46;63.85
34124;BME280;13153;52.316;21.166;2023-01-28T03:31:18;101153.03;;;5.50;63.97
34124;BME280;13153;52.316;21.166;2023-01-28T03:34:04;101140.16;;;5.53;63.77
34124;BME280;13153;52.316;21.166;2023-01-28T03:36:50;101150.59;;;5.53;63.70
34124;BME280;13153;52.316;21.166;2023-01-28T03:39:22;101141.16;;;5.55;64.09
34124;BME280;13153;52.316;21.166;2023-01-28T03:42:11;101134.94;;;5.53;63.93
34124;BME280;13153;52.316;21.166;2023-01-28T03:44:38;101146.47;;;5.57;63.67
34124;BME280;13153;52.316;21.166;2023-01-28T03:47:22;101138.81;;;5.60;63.79
34124;BME280;13153;52.316;21.166;2023-01-28T03:49:51;101143.22;;;5.61;63.85
34124;BME280;13153;52.316;21.166;2023-01-28T03:52:21;101149.44;;;5.63;63.70
34124;BME280;13153;52.316;21.166;2023-01-28T03:54:48;101135.47;;;5.62;63.27
34124;BME280;13153;52.316;21.166;2023-01-28T03:57:16;101147.72;;;5.63;64.06
34124;BME280;13153;52.316;21.166;2023-01-28T03:59:43;101146.81;;;5.63;63.59
34124;BME280;13153;52.316;21.166;2023-01-28T04:02:11;101142.22;;;5.59;63.43
34124;BME280;13153;52.316;21.166;2023-01-28T04:04:38;101151.78;;;5.58;63.03
34124;BME280;13153;52.316;21.166;2023-01-28T04:07:06;101153.66;;;5.61;63.46
34124;BME280;13153;52.316;21.166;2023-01-28T04:09:34;101148.34;;;5.59;63.29
34124;BME280;13153;52.316;21.166;2023-01-28T04:12:00;101149.06;;;5.57;63.41
34124;BME280;13153;52.316;21.166;2023-01-28T04:14:26;101153.38;;;5.56;63.46
34124;BME280;13153;52.316;21.166;2023-01-28T04:16:52;101153.38;;;5.56;63.46
34124;BME280;13153;52.316;21.166;2023-01-28T04:19:21;101150.50;;;5.52;63.52
34124;BME280;13153;52.316;21.166;2023-01-28T04:21:47;101148.97;;;5.55;63.62
34124;BME280;13153;52.316;21.166;2023-01-28T04:24:15;101142.22;;;5.59;63.60
34124;BME280;13153;52.316;21.166;2023-01-28T04:26:41;101146.47;;;5.57;63.57
34124;BME280;13153;52.316;21.166;2023-01-28T04:29:07;101143.94;;;5.58;63.46
34124;BME280;13153;52.316;21.166;2023-01-28T04:31:33;101149.16;;;5.58;63.42
34124;BME280;13153;52.316;21.166;2023-01-28T04:33:59;101153.75;;;5.62;63.58
34124;BME280;13153;52.316;21.166;2023-01-28T04:36:25;101148.63;;;5.64;63.12
34124;BME280;13153;52.316;21.166;2023-01-28T04:38:51;101152.13;;;5.64;63.64
34124;BME280;13153;52.316;21.166;2023-01-28T04:41:18;101155.72;;;5.67;63.38
34124;BME280;13153;52.316;21.166;2023-01-28T04:43:43;101151.41;;;5.67;63.51
34124;BME280;13153;52.316;21.166;2023-01-28T04:46:09;101152.31;;;5.68;63.01
34124;BME280;13153;52.316;21.166;2023-01-28T04:48:35;101153.28;;;5.70;63.31
34124;BME280;13153;52.316;21.166;2023-01-28T04:51:03;101156.81;;;5.70;63.32
34124;BME280;13153;52.316;21.166;2023-01-28T04:53:29;101161.31;;;5.73;63.18
34124;BME280;13153;52.316;21.166;2023-01-28T04:55:56;101171.03;;;5.75;63.29
34124;BME280;13153;52.316;21.166;2023-01-28T04:58:22;101161.41;;;5.74;63.05
34124;BME280;13153;52.316;21.166;2023-01-28T05:00:56;101159.50;;;5.72;62.99
34124;BME280;13153;52.316;21.166;2023-01-28T05:03:23;101161.22;;;5.71;63.09
34124;BME280;13153;52.316;21.166;2023-01-28T05:05:50;101168.16;;;5.71;63.36
34124;BME280;13153;52.316;21.166;2023-01-28T05:08:16;101165.53;;;5.71;63.36
34124;BME280;13153;52.316;21.166;2023-01-28T05:10:42;101169.06;;;5.71;63.10
34124;BME280;13153;52.316;21.166;2023-01-28T05:13:08;101159.31;;;5.69;62.94
34124;BME280;13153;52.316;21.166;2023-01-28T05:15:34;101159.25;;;5.67;63.00
34124;BME280;13153;52.316;21.166;2023-01-28T05:18:00;101157.53;;;5.68;63.07
34124;BME280;13153;52.316;21.166;2023-01-28T05:20:26;101160.22;;;5.69;63.50
34124;BME280;13153;52.316;21.166;2023-01-28T05:22:52;101162.84;;;5.69;63.02
34124;BME280;13153;52.316;21.166;2023-01-28T05:25:18;101158.44;;;5.68;62.97
34124;BME280;13153;52.316;21.166;2023-01-28T05:27:49;101168.88;;;5.68;63.22
34124;BME280;13153;52.316;21.166;2023-01-28T05:30:17;101172.28;;;5.67;63.22
34124;BME280;13153;52.316;21.166;2023-01-28T05:32:43;101176.69;;;5.68;63.47
34124;BME280;13153;52.316;21.166;2023-01-28T05:35:09;101176.69;;;5.68;63.53
34124;BME280;13153;52.316;21.166;2023-01-28T05:37:35;101164.63;;;5.70;63.68
34124;BME280;13153;52.316;21.166;2023-01-28T05:40:01;101166.44;;;5.71;63.31
34124;BME280;13153;52.316;21.166;2023-01-28T05:42:27;101169.78;;;5.69;63.33
34124;BME280;13153;52.316;21.166;2023-01-28T05:44:53;101168.06;;;5.69;63.38
34124;BME280;13153;52.316;21.166;2023-01-28T05:47:19;101174.91;;;5.67;63.37
34124;BME280;13153;52.316;21.166;2023-01-28T05:49:44;101179.22;;;5.67;63.49
34124;BME280;13153;52.316;21.166;2023-01-28T05:52:11;101178.22;;;5.64;63.49
34124;BME280;13153;52.316;21.166;2023-01-28T05:54:37;101177.44;;;5.66;63.58
34124;BME280;13153;52.316;21.166;2023-01-28T05:57:03;101177.44;;;5.66;63.75
34124;BME280;13153;52.316;21.166;2023-01-28T05:59:30;101183.72;;;5.69;63.76
34124;BME280;13153;52.316;21.166;2023-01-28T06:01:55;101184.53;;;5.68;63.85
34124;BME280;13153;52.316;21.166;2023-01-28T06:04:21;101183.38;;;5.63;63.61
34124;BME280;13153;52.316;21.166;2023-01-28T06:06:47;101185.88;;;5.61;63.78
34124;BME280;13153;52.316;21.166;2023-01-28T06:09:13;101184.88;;;5.59;63.78
34124;BME280;13153;52.316;21.166;2023-01-28T06:11:38;101190.13;;;5.59;63.98
34124;BME280;13153;52.316;21.166;2023-01-28T06:14:04;101186.69;;;5.60;63.87
34124;BME280;13153;52.316;21.166;2023-01-28T06:16:30;101195.59;;;5.64;63.85
34124;BME280;13153;52.316;21.166;2023-01-28T06:18:56;101193.19;;;5.67;64.10
34124;BME280;13153;52.316;21.166;2023-01-28T06:21:21;101190.75;;;5.70;64.22
34124;BME280;13153;52.316;21.166;2023-01-28T06:23:47;101192.47;;;5.70;64.05
34124;BME280;13153;52.316;21.166;2023-01-28T06:26:13;101198.59;;;5.70;63.91
34124;BME280;13153;52.316;21.166;2023-01-28T06:28:39;101196.78;;;5.69;64.09
34124;BME280;13153;52.316;21.166;2023-01-28T06:31:04;101200.28;;;5.70;64.15
34124;BME280;13153;52.316;21.166;2023-01-28T06:33:30;101203.81;;;5.70;64.08
34124;BME280;13153;52.316;21.166;2023-01-28T06:35:56;101201.38;;;5.73;64.41
34124;BME280;13153;52.316;21.166;2023-01-28T06:38:22;101204.88;;;5.74;64.40
34124;BME280;13153;52.316;21.166;2023-01-28T06:40:53;101205.78;;;5.74;64.06
34124;BME280;13153;52.316;21.166;2023-01-28T06:43:21;101208.50;;;5.76;64.21
34124;BME280;13153;52.316;21.166;2023-01-28T06:45:56;101216.03;;;5.71;63.94
34124;BME280;13153;52.316;21.166;2023-01-28T06:48:24;101210.91;;;5.73;64.36
34124;BME280;13153;52.316;21.166;2023-01-28T06:50:50;101208.94;;;5.69;63.98
34124;BME280;13153;52.316;21.166;2023-01-28T06:53:17;101211.63;;;5.70;64.03
34124;BME280;13153;52.316;21.166;2023-01-28T06:55:43;101213.44;;;5.71;64.23
34124;BME280;13153;52.316;21.166;2023-01-28T06:58:09;101214.44;;;5.73;64.19
34124;BME280;13153;52.316;21.166;2023-01-28T07:00:35;101220.56;;;5.74;64.28
34124;BME280;13153;52.316;21.166;2023-01-28T07:03:02;101223.97;;;5.73;64.14
34124;BME280;13153;52.316;21.166;2023-01-28T07:05:28;101218.84;;;5.74;64.31
34124;BME280;13153;52.316;21.166;2023-01-28T07:07:54;101219.75;;;5.75;64.00
34124;BME280;13153;52.316;21.166;2023-01-28T07:10:19;101224.16;;;5.76;63.91
34124;BME280;13153;52.316;21.166;2023-01-28T07:12:45;101222.59;;;5.79;64.09
34124;BME280;13153;52.316;21.166;2023-01-28T07:15:11;101231.50;;;5.83;64.16
34124;BME280;13153;52.316;21.166;2023-01-28T07:17:43;101222.13;;;5.86;63.92
34124;BME280;13153;52.316;21.166;2023-01-28T07:20:12;101230.06;;;5.88;63.73
34124;BME280;13153;52.316;21.166;2023-01-28T07:22:41;101225.75;;;5.88;63.96
34124;BME280;13153;52.316;21.166;2023-01-28T07:25:10;101226.69;;;5.89;63.87
34124;BME280;13153;52.316;21.166;2023-01-28T07:27:36;101235.41;;;5.89;63.59
34124;BME280;13153;52.316;21.166;2023-01-28T07:30:02;101231.09;;;5.90;63.73
34124;BME280;13153;52.316;21.166;2023-01-28T07:32:28;101236.41;;;5.91;63.45
34124;BME280;13153;52.316;21.166;2023-01-28T07:34:54;101232.69;;;5.88;63.28
34124;BME280;13153;52.316;21.166;2023-01-28T07:37:20;101224.84;;;5.88;63.23
34124;BME280;13153;52.316;21.166;2023-01-28T07:39:46;101238.72;;;5.87;63.40
34124;BME280;13153;52.316;21.166;2023-01-28T07:42:12;101244.84;;;5.87;63.36
34124;BME280;13153;52.316;21.166;2023-01-28T07:44:38;101236.19;;;5.88;63.48
34124;BME280;13153;52.316;21.166;2023-01-28T07:47:05;101246.63;;;5.88;63.38
34124;BME280;13153;52.316;21.166;2023-01-28T07:49:32;101238.03;;;5.89;63.39
34124;BME280;13153;52.316;21.166;2023-01-28T07:51:59;101237.22;;;5.90;63.23
34124;BME280;13153;52.316;21.166;2023-01-28T07:54:25;101239.81;;;5.90;63.40
34124;BME280;13153;52.316;21.166;2023-01-28T07:56:51;101232.00;;;5.90;63.52
34124;BME280;13153;52.316;21.166;2023-01-28T07:59:17;101240.91;;;5.94;63.77
34124;BME280;13153;52.316;21.166;2023-01-28T08:01:43;101233.16;;;5.95;63.58
34124;BME280;13153;52.316;21.166;2023-01-28T08:04:08;101242.81;;;5.96;63.51
34124;BME280;13153;52.316;21.166;2023-01-28T08:06:34;101241.81;;;5.94;63.35
34124;BME280;13153;52.316;21.166;2023-01-28T08:09:06;101234.97;;;5.96;63.37
34124;BME280;13153;52.316;21.166;2023-01-28T08:11:37;101233.44;;;6.00;63.31
34124;BME280;13153;52.316;21.166;2023-01-28T08:14:04;101235.06;;;5.98;63.08
34124;BME280;13153;52.316;21.166;2023-01-28T08:16:30;101237.75;;;6.00;63.31
34124;BME280;13153;52.316;21.166;2023-01-28T08:18:56;101235.16;;;6.00;62.96
34124;BME280;13153;52.316;21.166;2023-01-28T08:21:22;101238.75;;;6.02;63.15
34124;BME280;13153;52.316;21.166;2023-01-28T08:23:48;101242.34;;;6.04;62.68
34124;BME280;13153;52.316;21.166;2023-01-28T08:26:14;101244.06;;;6.03;62.99
34124;BME280;13153;52.316;21.166;2023-01-28T08:28:40;101235.31;;;6.03;62.68
34124;BME280;13153;52.316;21.166;2023-01-28T08:31:06;101242.16;;;6.01;62.94
34124;BME280;13153;52.316;21.166;2023-01-28T08:33:32;101239.56;;;6.01;62.51
34124;BME280;13153;52.316;21.166;2023-01-28T08:36:02;101239.66;;;6.02;62.38
34124;BME280;13153;52.316;21.166;2023-01-28T08:38:29;101237.03;;;6.02;62.53
34124;BME280;13153;52.316;21.166;2023-01-28T08:40:57;101236.78;;;5.97;62.80
34124;BME280;13153;52.316;21.166;2023-01-28T08:43:24;101233.78;;;5.91;62.66
34124;BME280;13153;52.316;21.166;2023-01-28T08:45:50;101245.22;;;5.93;62.76
34124;BME280;13153;52.316;21.166;2023-01-28T08:48:18;101239.19;;;5.94;62.69
34124;BME280;13153;52.316;21.166;2023-01-28T08:50:44;101237.50;;;5.95;62.70
34124;BME280;13153;52.316;21.166;2023-01-28T08:53:14;101242.63;;;5.93;62.83
34124;BME280;13153;52.316;21.166;2023-01-28T08:55:40;101242.44;;;5.90;62.74
34124;BME280;13153;52.316;21.166;2023-01-28T08:58:11;101243.25;;;5.89;62.58
34124;BME280;13153;52.316;21.166;2023-01-28T09:00:38;101241.31;;;5.87;62.83
34124;BME280;13153;52.316;21.166;2023-01-28T09:03:05;101246.53;;;5.87;62.79
34124;BME280;13153;52.316;21.166;2023-01-28T09:05:31;101241.22;;;5.85;63.03
34124;BME280;13153;52.316;21.166;2023-01-28T09:08:04;101245.66;;;5.86;62.79
34124;BME280;13153;52.316;21.166;2023-01-28T09:10:31;101252.78;;;5.89;63.09
34124;BME280;13153;52.316;21.166;2023-01-28T09:12:57;101260.72;;;5.90;62.80
34124;BME280;13153;52.316;21.166;2023-01-28T09:15:23;101264.91;;;5.88;63.05
34124;BME280;13153;52.316;21.166;2023-01-28T09:17:48;101262.31;;;5.88;62.91
34124;BME280;13153;52.316;21.166;2023-01-28T09:20:15;101266.63;;;5.88;62.93
34124;BME280;13153;52.316;21.166;2023-01-28T09:22:41;101271.16;;;5.90;63.07
34124;BME280;13153;52.316;21.166;2023-01-28T09:25:07;101273.16;;;5.94;62.89
34124;BME280;13153;52.316;21.166;2023-01-28T09:27:33;101270.63;;;5.96;62.91
34124;BME280;13153;52.316;21.166;2023-01-28T09:29:59;101268.13;;;5.97;62.68
34124;BME280;13153;52.316;21.166;2023-01-28T09:32:25;101264.78;;;6.00;62.70
34124;BME280;13153;52.316;21.166;2023-01-28T09:34:50;101271.00;;;6.02;62.68
34124;BME280;13153;52.316;21.166;2023-01-28T09:37:16;101271.72;;;6.00;62.61
34124;BME280;13153;52.316;21.166;2023-01-28T09:39:42;101266.50;;;6.00;61.85
34124;BME280;13153;52.316;21.166;2023-01-28T09:42:21;101275.94;;;5.97;62.40
34124;BME280;13153;52.316;21.166;2023-01-28T09:45:19;101266.41;;;5.98;62.56
34124;BME280;13153;52.316;21.166;2023-01-28T09:47:57;101271.63;;;5.98;62.10
34124;BME280;13153;52.316;21.166;2023-01-28T09:50:34;101261.19;;;5.98;62.39
34124;BME280;13153;52.316;21.166;2023-01-28T09:53:17;101263.78;;;5.98;62.21
34124;BME280;13153;52.316;21.166;2023-01-28T09:56:01;101262.88;;;5.97;62.37
34124;BME280;13153;52.316;21.166;2023-01-28T09:58:28;101264.69;;;5.99;62.42
34124;BME280;13153;52.316;21.166;2023-01-28T10:01:37;101268.19;;;5.99;62.12
34124;BME280;13153;52.316;21.166;2023-01-28T10:07:48;101265.50;;;5.97;62.23
34124;BME280;13153;52.316;21.166;2023-01-28T10:10:26;101257.75;;;5.99;62.50
34124;BME280;13153;52.316;21.166;2023-01-28T10:13:27;101251.91;;;6.03;62.60
34124;BME280;13153;52.316;21.166;2023-01-28T10:16:21;101255.69;;;6.08;62.58
34124;BME280;13153;52.316;21.166;2023-01-28T10:18:59;101255.84;;;6.11;62.58
34124;BME280;13153;52.316;21.166;2023-01-28T10:21:46;101257.75;;;6.14;62.49
34124;BME280;13153;52.316;21.166;2023-01-28T10:24:35;101261.34;;;6.16;62.10
34124;BME280;13153;52.316;21.166;2023-01-28T10:27:10;101242.97;;;6.14;62.11
34124;BME280;13153;52.316;21.166;2023-01-28T10:29:37;101255.22;;;6.15;62.27
34124;BME280;13153;52.316;21.166;2023-01-28T10:32:22;101246.50;;;6.15;61.82
34124;BME280;13153;52.316;21.166;2023-01-28T10:34:52;101250.53;;;6.10;61.95
34124;BME280;13153;52.316;21.166;2023-01-28T10:37:19;101240.09;;;6.10;62.24
34124;BME280;13153;52.316;21.166;2023-01-28T10:39:46;101243.69;;;6.12;62.06
34124;BME280;13153;52.316;21.166;2023-01-28T10:45:39;101238.00;;;6.19;61.80
34124;BME280;13153;52.316;21.166;2023-01-28T10:48:35;101237.19;;;6.20;61.52
34124;BME280;13153;52.316;21.166;2023-01-28T10:51:04;101239.81;;;6.20;61.69
34124;BME280;13153;52.316;21.166;2023-01-28T10:53:38;101232.25;;;6.10;61.38
34124;BME280;13153;52.316;21.166;2023-01-28T10:56:10;101235.69;;;6.09;61.62
34124;BME280;13153;52.316;21.166;2023-01-28T10:59:02;101236.03;;;6.00;61.46
34124;BME280;13153;52.316;21.166;2023-01-28T11:01:53;101234.97;;;5.96;61.57
34124;BME280;13153;52.316;21.166;2023-01-28T11:04:33;101234.69;;;5.92;61.55
34124;BME280;13153;52.316;21.166;2023-01-28T11:07:03;101235.59;;;5.92;62.00
34124;BME280;13153;52.316;21.166;2023-01-28T11:09:35;101231.19;;;5.91;61.99
34124;BME280;13153;52.316;21.166;2023-01-28T11:12:24;101230.28;;;5.91;62.26
34124;BME280;13153;52.316;21.166;2023-01-28T11:14:59;101228.94;;;5.97;62.07
34124;BME280;13153;52.316;21.166;2023-01-28T11:17:35;101220.63;;;6.05;62.34
34124;BME280;13153;52.316;21.166;2023-01-28T11:20:20;101219.00;;;6.07;62.00
34124;BME280;13153;52.316;21.166;2023-01-28T11:22:48;101223.69;;;6.12;62.30
34124;BME280;13153;52.316;21.166;2023-01-28T11:25:31;101224.69;;;6.14;61.62
34124;BME280;13153;52.316;21.166;2023-01-28T11:28:00;101225.50;;;6.13;61.77
34124;BME280;13153;52.316;21.166;2023-01-28T11:30:39;101220.44;;;6.16;61.90
34124;BME280;13153;52.316;21.166;2023-01-28T11:33:30;101216.22;;;6.18;61.76
34124;BME280;13153;52.316;21.166;2023-01-28T11:36:18;101214.50;;;6.19;61.78
34124;BME280;13153;52.316;21.166;2023-01-28T11:38:59;101207.56;;;6.19;61.47
34124;BME280;13153;52.316;21.166;2023-01-28T11:41:27;101209.09;;;6.16;61.39
34124;BME280;13153;52.316;21.166;2023-01-28T11:43:54;101203.97;;;6.17;61.32
34124;BME280;13153;52.316;21.166;2023-01-28T11:54:46;101199.91;;;6.22;61.53
34124;BME280;13153;52.316;21.166;2023-01-28T12:09:28;101207.91;;;6.25;61.30
34124;BME280;13153;52.316;21.166;2023-01-28T12:12:19;101200.34;;;6.30;61.63
34124;BME280;13153;52.316;21.166;2023-01-28T12:24:28;101198.88;;;6.35;60.98
34124;BME280;13153;52.316;21.166;2023-01-28T12:27:33;101199.03;;;6.38;61.35
34124;BME280;13153;52.316;21.166;2023-01-28T12:36:32;101203.44;;;6.39;60.92
34124;BME280;13153;52.316;21.166;2023-01-28T12:41:53;101202.34;;;6.36;60.75
34124;BME280;13153;52.316;21.166;2023-01-28T12:44:34;101201.63;;;6.38;61.04
34124;BME280;13153;52.316;21.166;2023-01-28T12:47:12;101193.97;;;6.41;61.22
34124;BME280;13153;52.316;21.166;2023-01-28T12:50:23;101197.47;;;6.42;60.79
34124;BME280;13153;52.316;21.166;2023-01-28T12:52:56;101200.09;;;6.42;61.00
34124;BME280;13153;52.316;21.166;2023-01-28T12:55:57;101207.84;;;6.40;60.92
34124;BME280;13153;52.316;21.166;2023-01-28T12:59:11;101206.84;;;6.38;61.36
34124;BME280;13153;52.316;21.166;2023-01-28T13:01:46;101204.91;;;6.34;60.85
34124;BME280;13153;52.316;21.166;2023-01-28T13:04:45;101194.47;;;6.34;61.20
34124;BME280;13153;52.316;21.166;2023-01-28T13:07:47;101204.09;;;6.35;61.04
34124;BME280;13153;52.316;21.166;2023-01-28T13:12:50;101202.34;;;6.36;61.35
34124;BME280;13153;52.316;21.166;2023-01-28T13:15:19;101198.03;;;6.36;61.04
34124;BME280;13153;52.316;21.166;2023-01-28T13:20:50;101197.06;;;6.34;61.13
34124;BME280;13153;52.316;21.166;2023-01-28T13:26:26;101204.97;;;6.36;61.70
34124;BME280;13153;52.316;21.166;2023-01-28T13:31:55;101204.91;;;6.34;61.72
34124;BME280;13153;52.316;21.166;2023-01-28T13:34:40;101204.03;;;6.34;61.77
34124;BME280;13153;52.316;21.166;2023-01-28T13:39:52;101193.41;;;6.31;60.95
34124;BME280;13153;52.316;21.166;2023-01-28T13:42:27;101202.03;;;6.29;61.19
34124;BME280;13153;52.316;21.166;2023-01-28T13:44:53;101206.38;;;6.29;61.21
34124;BME280;13153;52.316;21.166;2023-01-28T13:47:30;101209.97;;;6.31;61.21
34124;BME280;13153;52.316;21.166;2023-01-28T13:50:11;101208.09;;;6.28;61.06
34124;BME280;13153;52.316;21.166;2023-01-28T13:52:50;101203.41;;;6.23;60.92
34124;BME280;13153;52.316;21.166;2023-01-28T13:55:30;101197.03;;;6.18;60.57
34124;BME280;13153;52.316;21.166;2023-01-28T14:04:48;101198.72;;;6.17;61.21
34124;BME280;13153;52.316;21.166;2023-01-28T14:13:48;101203.41;;;6.23;61.22
34124;BME280;13153;52.316;21.166;2023-01-28T14:16:44;101205.13;;;6.22;61.11
34124;BME280;13153;52.316;21.166;2023-01-28T14:19:25;101201.53;;;6.20;61.43
34124;BME280;13153;52.316;21.166;2023-01-28T14:21:52;101205.03;;;6.21;61.29
34124;BME280;13153;52.316;21.166;2023-01-28T14:24:19;101212.16;;;6.23;61.70
34124;BME280;13153;52.316;21.166;2023-01-28T14:30:13;101199.97;;;6.24;61.72
34124;BME280;13153;52.316;21.166;2023-01-28T14:32:50;101203.41;;;6.23;61.38
34124;BME280;13153;52.316;21.166;2023-01-28T14:35:30;101203.41;;;6.23;61.70
34124;BME280;13153;52.316;21.166;2023-01-28T14:37:57;101203.31;;;6.21;61.44
34124;BME280;13153;52.316;21.166;2023-01-28T14:40:27;101195.22;;;6.17;61.40
34124;BME280;13153;52.316;21.166;2023-01-28T14:42:55;101203.88;;;6.16;60.87